sensor_id;sensor_type;location;lat;lon;timestamp;temperature;humidity
66608;DHT22;53462;39.616;8.824;2022-12-05T00:00:45;12.10;99.90
66608;DHT22;53462;39.616;8.824;2022-12-05T00:03:11;12.10;99.90
66608;DHT22;53462;39.616;8.824;2022-12-05T00:05:40;12.20;99.90
66608;DHT22;53462;39.616;8.824;2022-12-05T00:08:06;12.20;99.90
66608;DHT22;53462;39.616;8.824;2022-12-05T00:10:35;12.20;99.90
66608;DHT22;53462;39.616;8.824;2022-12-05T00:13:01;12.20;99.90
66608;DHT22;53462;39.616;8.824;2022-12-05T00:15:27;12.20;99.90
66608;DHT22;53462;39.616;8.824;2022-12-05T00:17:53;12.10;99.90
66608;DHT22;53462;39.616;8.824;2022-12-05T00:20:19;12.20;99.90
66608;DHT22;53462;39.616;8.824;2022-12-05T00:22:45;12.10;99.90
66608;DHT22;53462;39.616;8.824;2022-12-05T00:25:11;12.20;99.90
66608;DHT22;53462;39.616;8.824;2022-12-05T00:27:37;12.20;99.90
66608;DHT22;53462;39.616;8.824;2022-12-05T00:30:05;12.20;99.90
66608;DHT22;53462;39.616;8.824;2022-12-05T00:32:31;12.10;99.90
66608;DHT22;53462;39.616;8.824;2022-12-05T00:34:57;12.10;99.90
66608;DHT22;53462;39.616;8.824;2022-12-05T00:37:23;12.10;99.90
66608;DHT22;53462;39.616;8.824;2022-12-05T00:39:49;12.20;99.90
66608;DHT22;53462;39.616;8.824;2022-12-05T00:42:15;12.10;99.90
66608;DHT22;53462;39.616;8.824;2022-12-05T00:44:41;12.10;99.90
66608;DHT22;53462;39.616;8.824;2022-12-05T00:47:07;12.10;99.90
66608;DHT22;53462;39.616;8.824;2022-12-05T00:49:33;12.10;99.90
66608;DHT22;53462;39.616;8.824;2022-12-05T00:51:59;12.10;99.90
66608;DHT22;53462;39.616;8.824;2022-12-05T00:54:25;12.10;99.90
66608;DHT22;53462;39.616;8.824;2022-12-05T00:56:50;12.00;99.90
66608;DHT22;53462;39.616;8.824;2022-12-05T00:59:22;12.00;99.90
66608;DHT22;53462;39.616;8.824;2022-12-05T01:01:50;12.00;99.90
66608;DHT22;53462;39.616;8.824;2022-12-05T01:04:19;11.90;99.90
66608;DHT22;53462;39.616;8.824;2022-12-05T01:06:45;12.00;99.90
66608;DHT22;53462;39.616;8.824;2022-12-05T01:09:14;11.90;99.90
66608;DHT22;53462;39.616;8.824;2022-12-05T01:11:41;11.90;99.90
66608;DHT22;53462;39.616;8.824;2022-12-05T01:14:09;12.00;99.90
66608;DHT22;53462;39.616;8.824;2022-12-05T01:16:36;12.00;99.90
66608;DHT22;53462;39.616;8.824;2022-12-05T01:19:06;12.00;99.90
66608;DHT22;53462;39.616;8.824;2022-12-05T01:21:32;12.00;99.90
66608;DHT22;53462;39.616;8.824;2022-12-05T01:23:58;12.00;99.90
66608;DHT22;53462;39.616;8.824;2022-12-05T01:26:24;11.90;99.90
66608;DHT22;53462;39.616;8.824;2022-12-05T01:28:50;11.90;99.90
66608;DHT22;53462;39.616;8.824;2022-12-05T01:33:47;12.00;99.90
66608;DHT22;53462;39.616;8.824;2022-12-05T01:36:14;11.90;99.90
66608;DHT22;53462;39.616;8.824;2022-12-05T01:38:41;12.00;99.90
66608;DHT22;53462;39.616;8.824;2022-12-05T01:41:13;12.00;99.90
66608;DHT22;53462;39.616;8.824;2022-12-05T01:46:20;12.00;99.90
66608;DHT22;53462;39.616;8.824;2022-12-05T01:48:46;12.00;99.90
66608;DHT22;53462;39.616;8.824;2022-12-05T01:51:13;12.00;99.90
66608;DHT22;53462;39.616;8.824;2022-12-05T01:53:40;11.90;99.90
66608;DHT22;53462;39.616;8.824;2022-12-05T01:56:06;11.90;99.90
66608;DHT22;53462;39.616;8.824;2022-12-05T01:58:36;11.90;99.90
66608;DHT22;53462;39.616;8.824;2022-12-05T02:01:03;12.00;99.90
66608;DHT22;53462;39.616;8.824;2022-12-05T02:03:29;12.00;99.90
66608;DHT22;53462;39.616;8.824;2022-12-05T02:05:56;12.00;99.90
66608;DHT22;53462;39.616;8.824;2022-12-05T02:08:23;12.00;99.90
66608;DHT22;53462;39.616;8.824;2022-12-05T02:10:54;12.10;99.90
66608;DHT22;53462;39.616;8.824;2022-12-05T02:16:07;12.10;99.90
66608;DHT22;53462;39.616;8.824;2022-12-05T02:29:08;12.10;99.90
66608;DHT22;53462;39.616;8.824;2022-12-05T02:31:56;12.00;99.90
66608;DHT22;53462;39.616;8.824;2022-12-05T02:44:11;12.00;99.90
66608;DHT22;53462;39.616;8.824;2022-12-05T02:46:20;12.10;99.90
66608;DHT22;53462;39.616;8.824;2022-12-05T02:48:47;12.10;99.90
66608;DHT22;53462;39.616;8.824;2022-12-05T02:51:19;12.10;99.90
66608;DHT22;53462;39.616;8.824;2022-12-05T02:53:47;12.10;99.90
66608;DHT22;53462;39.616;8.824;2022-12-05T02:56:14;12.10;99.90
66608;DHT22;53462;39.616;8.824;2022-12-05T02:58:53;12.10;99.90
66608;DHT22;53462;39.616;8.824;2022-12-05T03:01:23;12.10;99.90
66608;DHT22;53462;39.616;8.824;2022-12-05T03:03:50;12.10;99.90
66608;DHT22;53462;39.616;8.824;2022-12-05T03:06:24;12.10;99.90
66608;DHT22;53462;39.616;8.824;2022-12-05T03:08:52;12.10;99.90
66608;DHT22;53462;39.616;8.824;2022-12-05T03:11:19;12.10;99.90
66608;DHT22;53462;39.616;8.824;2022-12-05T03:13:52;12.10;99.90
66608;DHT22;53462;39.616;8.824;2022-12-05T03:16:37;12.20;99.90
66608;DHT22;53462;39.616;8.824;2022-12-05T03:19:11;12.20;99.90
66608;DHT22;53462;39.616;8.824;2022-12-05T03:24:18;12.20;99.90
66608;DHT22;53462;39.616;8.824;2022-12-05T03:32:23;12.10;99.90
66608;DHT22;53462;39.616;8.824;2022-12-05T03:35:15;12.10;99.90
66608;DHT22;53462;39.616;8.824;2022-12-05T03:37:54;12.10;99.90
66608;DHT22;53462;39.616;8.824;2022-12-05T03:40:27;12.20;99.90
66608;DHT22;53462;39.616;8.824;2022-12-05T03:43:07;12.10;99.90
66608;DHT22;53462;39.616;8.824;2022-12-05T03:45:42;12.10;99.90
66608;DHT22;53462;39.616;8.824;2022-12-05T03:48:21;12.10;99.90
66608;DHT22;53462;39.616;8.824;2022-12-05T03:50:49;12.10;99.90
66608;DHT22;53462;39.616;8.824;2022-12-05T03:53:26;12.10;99.90
66608;DHT22;53462;39.616;8.824;2022-12-05T03:56:01;12.10;99.90
66608;DHT22;53462;39.616;8.824;2022-12-05T03:58:44;12.20;99.90
66608;DHT22;53462;39.616;8.824;2022-12-05T04:01:13;12.20;99.90
66608;DHT22;53462;39.616;8.824;2022-12-05T04:03:51;12.20;99.90
66608;DHT22;53462;39.616;8.824;2022-12-05T04:06:32;12.30;99.90
66608;DHT22;53462;39.616;8.824;2022-12-05T04:09:15;12.20;99.90
66608;DHT22;53462;39.616;8.824;2022-12-05T04:11:47;12.20;99.90
66608;DHT22;53462;39.616;8.824;2022-12-05T04:14:18;12.20;99.90
66608;DHT22;53462;39.616;8.824;2022-12-05T04:16:55;12.20;99.90
66608;DHT22;53462;39.616;8.824;2022-12-05T04:22:26;12.20;99.90
66608;DHT22;53462;39.616;8.824;2022-12-05T04:24:55;12.20;99.90
66608;DHT22;53462;39.616;8.824;2022-12-05T04:30:23;12.00;99.90
66608;DHT22;53462;39.616;8.824;2022-12-05T04:33:28;11.40;99.90
66608;DHT22;53462;39.616;8.824;2022-12-05T04:36:14;10.70;99.90
66608;DHT22;53462;39.616;8.824;2022-12-05T04:38:53;10.30;99.90
66608;DHT22;53462;39.616;8.824;2022-12-05T04:42:08;10.10;99.90
66608;DHT22;53462;39.616;8.824;2022-12-05T04:44:11;10.20;99.90
66608;DHT22;53462;39.616;8.824;2022-12-05T04:46:42;10.10;99.90
66608;DHT22;53462;39.616;8.824;2022-12-05T04:49:11;9.90;99.90
66608;DHT22;53462;39.616;8.824;2022-12-05T04:51:40;9.80;99.90
66608;DHT22;53462;39.616;8.824;2022-12-05T04:54:20;9.70;99.90
66608;DHT22;53462;39.616;8.824;2022-12-05T04:56:50;9.70;99.90
66608;DHT22;53462;39.616;8.824;2022-12-05T04:59:17;9.70;99.90
66608;DHT22;53462;39.616;8.824;2022-12-05T05:01:50;9.70;99.90
66608;DHT22;53462;39.616;8.824;2022-12-05T05:04:27;9.80;99.90
66608;DHT22;53462;39.616;8.824;2022-12-05T05:06:55;9.80;99.90
66608;DHT22;53462;39.616;8.824;2022-12-05T05:09:21;9.70;99.90
66608;DHT22;53462;39.616;8.824;2022-12-05T05:11:47;9.80;99.90
66608;DHT22;53462;39.616;8.824;2022-12-05T05:14:13;9.80;99.90
66608;DHT22;53462;39.616;8.824;2022-12-05T05:16:41;9.90;99.90
66608;DHT22;53462;39.616;8.824;2022-12-05T05:19:08;9.80;99.90
66608;DHT22;53462;39.616;8.824;2022-12-05T05:21:39;9.60;99.90
66608;DHT22;53462;39.616;8.824;2022-12-05T05:24:07;9.70;99.90
66608;DHT22;53462;39.616;8.824;2022-12-05T05:26:40;9.60;99.90
66608;DHT22;53462;39.616;8.824;2022-12-05T05:29:06;9.60;99.90
66608;DHT22;53462;39.616;8.824;2022-12-05T05:31:32;9.60;99.90
66608;DHT22;53462;39.616;8.824;2022-12-05T05:33:58;9.50;99.90
66608;DHT22;53462;39.616;8.824;2022-12-05T05:36:26;9.50;99.90
66608;DHT22;53462;39.616;8.824;2022-12-05T05:38:54;9.50;99.90
66608;DHT22;53462;39.616;8.824;2022-12-05T05:41:22;9.90;99.90
66608;DHT22;53462;39.616;8.824;2022-12-05T05:43:49;10.10;99.90
66608;DHT22;53462;39.616;8.824;2022-12-05T05:46:17;10.10;99.90
66608;DHT22;53462;39.616;8.824;2022-12-05T05:48:43;10.20;99.90
66608;DHT22;53462;39.616;8.824;2022-12-05T05:51:10;10.50;99.90
66608;DHT22;53462;39.616;8.824;2022-12-05T05:53:36;11.00;99.90
66608;DHT22;53462;39.616;8.824;2022-12-05T05:56:09;11.40;99.90
66608;DHT22;53462;39.616;8.824;2022-12-05T05:58:36;11.50;99.90
66608;DHT22;53462;39.616;8.824;2022-12-05T06:01:07;11.60;99.90
66608;DHT22;53462;39.616;8.824;2022-12-05T06:03:33;11.70;99.90
66608;DHT22;53462;39.616;8.824;2022-12-05T06:06:01;11.70;99.90
66608;DHT22;53462;39.616;8.824;2022-12-05T06:08:33;11.70;99.90
66608;DHT22;53462;39.616;8.824;2022-12-05T06:10:59;11.80;99.90
66608;DHT22;53462;39.616;8.824;2022-12-05T06:13:29;11.90;99.90
66608;DHT22;53462;39.616;8.824;2022-12-05T06:15:54;11.90;99.90
66608;DHT22;53462;39.616;8.824;2022-12-05T06:18:20;11.90;99.90
66608;DHT22;53462;39.616;8.824;2022-12-05T06:20:57;11.90;99.90
66608;DHT22;53462;39.616;8.824;2022-12-05T06:23:24;12.00;99.90
66608;DHT22;53462;39.616;8.824;2022-12-05T06:25:52;12.00;99.90
66608;DHT22;53462;39.616;8.824;2022-12-05T06:28:19;12.00;99.90
66608;DHT22;53462;39.616;8.824;2022-12-05T06:30:46;12.00;99.90
66608;DHT22;53462;39.616;8.824;2022-12-05T06:33:12;11.90;99.90
66608;DHT22;53462;39.616;8.824;2022-12-05T06:35:38;11.80;99.90
66608;DHT22;53462;39.616;8.824;2022-12-05T06:38:05;11.80;99.90
66608;DHT22;53462;39.616;8.824;2022-12-05T06:40:31;11.90;99.90
66608;DHT22;53462;39.616;8.824;2022-12-05T06:42:57;11.40;99.90
66608;DHT22;53462;39.616;8.824;2022-12-05T06:45:23;11.00;99.90
66608;DHT22;53462;39.616;8.824;2022-12-05T06:47:50;10.80;99.90
66608;DHT22;53462;39.616;8.824;2022-12-05T06:50:16;10.70;99.90
66608;DHT22;53462;39.616;8.824;2022-12-05T06:52:42;10.60;99.90
66608;DHT22;53462;39.616;8.824;2022-12-05T06:55:08;10.80;99.90
66608;DHT22;53462;39.616;8.824;2022-12-05T06:57:34;11.00;99.90
66608;DHT22;53462;39.616;8.824;2022-12-05T07:00:01;11.10;99.90
66608;DHT22;53462;39.616;8.824;2022-12-05T07:02:45;11.10;99.90
66608;DHT22;53462;39.616;8.824;2022-12-05T07:05:11;11.40;99.90
66608;DHT22;53462;39.616;8.824;2022-12-05T07:07:37;12.20;99.90
66608;DHT22;53462;39.616;8.824;2022-12-05T07:10:04;12.70;99.90
66608;DHT22;53462;39.616;8.824;2022-12-05T07:12:32;12.90;99.90
66608;DHT22;53462;39.616;8.824;2022-12-05T07:14:58;13.20;99.90
66608;DHT22;53462;39.616;8.824;2022-12-05T07:17:24;13.30;99.90
66608;DHT22;53462;39.616;8.824;2022-12-05T07:19:51;13.40;99.90
66608;DHT22;53462;39.616;8.824;2022-12-05T07:22:19;13.40;99.90
66608;DHT22;53462;39.616;8.824;2022-12-05T07:24:45;13.60;99.90
66608;DHT22;53462;39.616;8.824;2022-12-05T07:27:13;13.60;99.90
66608;DHT22;53462;39.616;8.824;2022-12-05T07:29:40;13.70;99.90
66608;DHT22;53462;39.616;8.824;2022-12-05T07:32:06;13.70;99.90
66608;DHT22;53462;39.616;8.824;2022-12-05T07:34:32;13.80;99.90
66608;DHT22;53462;39.616;8.824;2022-12-05T07:36:59;13.90;99.90
66608;DHT22;53462;39.616;8.824;2022-12-05T07:39:27;13.60;99.90
66608;DHT22;53462;39.616;8.824;2022-12-05T07:41:53;13.30;99.90
66608;DHT22;53462;39.616;8.824;2022-12-05T07:44:19;13.50;99.90
66608;DHT22;53462;39.616;8.824;2022-12-05T07:46:45;13.90;99.90
66608;DHT22;53462;39.616;8.824;2022-12-05T07:49:11;14.10;99.90
66608;DHT22;53462;39.616;8.824;2022-12-05T07:51:37;13.80;99.90
66608;DHT22;53462;39.616;8.824;2022-12-05T07:54:03;13.70;99.90
66608;DHT22;53462;39.616;8.824;2022-12-05T07:56:29;14.00;99.90
66608;DHT22;53462;39.616;8.824;2022-12-05T07:58:55;15.10;99.90
66608;DHT22;53462;39.616;8.824;2022-12-05T08:01:23;15.10;99.90
66608;DHT22;53462;39.616;8.824;2022-12-05T08:03:52;16.10;99.90
66608;DHT22;53462;39.616;8.824;2022-12-05T08:06:26;16.10;96.10
66608;DHT22;53462;39.616;8.824;2022-12-05T08:08:54;15.90;95.70
66608;DHT22;53462;39.616;8.824;2022-12-05T08:11:28;16.40;99.00
66608;DHT22;53462;39.616;8.824;2022-12-05T08:13:56;16.20;96.10
66608;DHT22;53462;39.616;8.824;2022-12-05T08:16:24;16.60;98.40
66608;DHT22;53462;39.616;8.824;2022-12-05T08:18:55;18.10;89.70
66608;DHT22;53462;39.616;8.824;2022-12-05T08:21:21;18.90;86.60
66608;DHT22;53462;39.616;8.824;2022-12-05T08:23:47;21.00;80.10
66608;DHT22;53462;39.616;8.824;2022-12-05T08:26:25;21.00;75.30
66608;DHT22;53462;39.616;8.824;2022-12-05T08:28:53;18.60;82.40
66608;DHT22;53462;39.616;8.824;2022-12-05T08:31:20;17.30;89.50
66608;DHT22;53462;39.616;8.824;2022-12-05T08:33:48;17.10;94.50
66608;DHT22;53462;39.616;8.824;2022-12-05T08:36:15;17.30;95.10
66608;DHT22;53462;39.616;8.824;2022-12-05T08:38:42;17.10;95.20
66608;DHT22;53462;39.616;8.824;2022-12-05T08:41:10;16.80;97.80
66608;DHT22;53462;39.616;8.824;2022-12-05T08:43:37;16.70;98.20
66608;DHT22;53462;39.616;8.824;2022-12-05T08:46:04;17.00;98.40
66608;DHT22;53462;39.616;8.824;2022-12-05T08:48:30;17.70;94.00
66608;DHT22;53462;39.616;8.824;2022-12-05T08:50:57;17.60;90.70
66608;DHT22;53462;39.616;8.824;2022-12-05T08:53:24;18.80;90.60
66608;DHT22;53462;39.616;8.824;2022-12-05T08:55:51;19.80;85.40
66608;DHT22;53462;39.616;8.824;2022-12-05T08:58:17;19.60;83.30
66608;DHT22;53462;39.616;8.824;2022-12-05T09:00:42;19.10;82.50
66608;DHT22;53462;39.616;8.824;2022-12-05T09:03:10;18.40;83.80
66608;DHT22;53462;39.616;8.824;2022-12-05T09:05:36;18.10;84.50
66608;DHT22;53462;39.616;8.824;2022-12-05T09:08:02;18.80;79.10
66608;DHT22;53462;39.616;8.824;2022-12-05T09:10:29;18.50;80.20
66608;DHT22;53462;39.616;8.824;2022-12-05T09:12:55;18.30;82.00
66608;DHT22;53462;39.616;8.824;2022-12-05T09:15:20;18.40;81.40
66608;DHT22;53462;39.616;8.824;2022-12-05T09:17:47;19.00;79.20
66608;DHT22;53462;39.616;8.824;2022-12-05T09:20:13;19.10;77.30
66608;DHT22;53462;39.616;8.824;2022-12-05T09:22:40;19.00;79.90
66608;DHT22;53462;39.616;8.824;2022-12-05T09:25:06;18.60;81.60
66608;DHT22;53462;39.616;8.824;2022-12-05T09:27:32;18.60;83.90
66608;DHT22;53462;39.616;8.824;2022-12-05T09:29:58;19.40;83.10
66608;DHT22;53462;39.616;8.824;2022-12-05T09:32:24;19.60;81.00
66608;DHT22;53462;39.616;8.824;2022-12-05T09:34:50;20.10;81.40
66608;DHT22;53462;39.616;8.824;2022-12-05T09:37:16;22.90;75.50
66608;DHT22;53462;39.616;8.824;2022-12-05T09:39:45;25.20;59.40
66608;DHT22;53462;39.616;8.824;2022-12-05T09:47:58;20.70;64.80
66608;DHT22;53462;39.616;8.824;2022-12-05T09:50:35;20.90;65.00
66608;DHT22;53462;39.616;8.824;2022-12-05T09:53:10;20.70;65.40
66608;DHT22;53462;39.616;8.824;2022-12-05T09:58:42;20.20;66.60
66608;DHT22;53462;39.616;8.824;2022-12-05T10:03:41;23.70;56.40
66608;DHT22;53462;39.616;8.824;2022-12-05T10:06:16;23.80;54.60
66608;DHT22;53462;39.616;8.824;2022-12-05T10:09:09;23.10;53.80
66608;DHT22;53462;39.616;8.824;2022-12-05T10:20:01;24.60;49.50
66608;DHT22;53462;39.616;8.824;2022-12-05T10:22:34;24.60;51.00
66608;DHT22;53462;39.616;8.824;2022-12-05T10:25:05;25.30;49.30
66608;DHT22;53462;39.616;8.824;2022-12-05T10:27:41;25.10;47.60
66608;DHT22;53462;39.616;8.824;2022-12-05T10:30:12;24.60;48.00
66608;DHT22;53462;39.616;8.824;2022-12-05T10:32:54;24.90;47.40
66608;DHT22;53462;39.616;8.824;2022-12-05T10:35:37;24.40;49.30
66608;DHT22;53462;39.616;8.824;2022-12-05T10:38:09;24.60;49.10
66608;DHT22;53462;39.616;8.824;2022-12-05T10:40:39;24.40;48.50
66608;DHT22;53462;39.616;8.824;2022-12-05T10:43:08;24.00;49.00
66608;DHT22;53462;39.616;8.824;2022-12-05T10:45:43;23.70;50.60
66608;DHT22;53462;39.616;8.824;2022-12-05T10:48:11;24.20;48.80
66608;DHT22;53462;39.616;8.824;2022-12-05T10:50:38;23.80;48.10
66608;DHT22;53462;39.616;8.824;2022-12-05T10:53:05;23.30;50.10
66608;DHT22;53462;39.616;8.824;2022-12-05T10:55:36;23.10;49.90
66608;DHT22;53462;39.616;8.824;2022-12-05T10:58:15;22.60;49.70
66608;DHT22;53462;39.616;8.824;2022-12-05T11:00:45;21.90;52.70
66608;DHT22;53462;39.616;8.824;2022-12-05T11:03:38;23.20;48.50
66608;DHT22;53462;39.616;8.824;2022-12-05T11:06:29;23.80;46.70
66608;DHT22;53462;39.616;8.824;2022-12-05T11:09:20;24.00;46.10
66608;DHT22;53462;39.616;8.824;2022-12-05T11:12:00;22.90;47.90
66608;DHT22;53462;39.616;8.824;2022-12-05T11:14:27;22.20;50.60
66608;DHT22;53462;39.616;8.824;2022-12-05T11:16:56;21.60;50.80
66608;DHT22;53462;39.616;8.824;2022-12-05T11:21:57;21.50;50.80
66608;DHT22;53462;39.616;8.824;2022-12-05T11:24:30;21.70;51.10
66608;DHT22;53462;39.616;8.824;2022-12-05T11:26:58;21.30;51.90
66608;DHT22;53462;39.616;8.824;2022-12-05T11:29:45;21.80;50.60
66608;DHT22;53462;39.616;8.824;2022-12-05T11:32:20;21.30;49.70
66608;DHT22;53462;39.616;8.824;2022-12-05T11:37:29;21.20;50.50
66608;DHT22;53462;39.616;8.824;2022-12-05T11:39:56;21.10;50.40
66608;DHT22;53462;39.616;8.824;2022-12-05T11:45:19;21.30;49.70
66608;DHT22;53462;39.616;8.824;2022-12-05T11:53:44;21.20;49.40
66608;DHT22;53462;39.616;8.824;2022-12-05T11:56:34;21.30;48.00
66608;DHT22;53462;39.616;8.824;2022-12-05T12:02:30;21.40;49.10
66608;DHT22;53462;39.616;8.824;2022-12-05T12:08:25;21.60;47.10
66608;DHT22;53462;39.616;8.824;2022-12-05T12:16:50;21.40;48.40
66608;DHT22;53462;39.616;8.824;2022-12-05T12:27:14;21.40;48.60
66608;DHT22;53462;39.616;8.824;2022-12-05T12:36:23;21.10;49.30
66608;DHT22;53462;39.616;8.824;2022-12-05T12:51:42;21.00;48.80
66608;DHT22;53462;39.616;8.824;2022-12-05T13:02:42;21.60;47.80
66608;DHT22;53462;39.616;8.824;2022-12-05T13:08:05;21.50;47.70
66608;DHT22;53462;39.616;8.824;2022-12-05T13:10:45;21.70;45.90
66608;DHT22;53462;39.616;8.824;2022-12-05T13:13:17;21.70;43.50
66608;DHT22;53462;39.616;8.824;2022-12-05T13:15:52;21.60;44.80
66608;DHT22;53462;39.616;8.824;2022-12-05T13:18:21;21.60;45.50
66608;DHT22;53462;39.616;8.824;2022-12-05T13:20:51;21.80;46.40
66608;DHT22;53462;39.616;8.824;2022-12-05T13:23:20;21.80;46.30
66608;DHT22;53462;39.616;8.824;2022-12-05T13:25:47;21.80;46.20
66608;DHT22;53462;39.616;8.824;2022-12-05T13:28:34;22.10;46.30
66608;DHT22;53462;39.616;8.824;2022-12-05T13:31:07;21.80;45.80
66608;DHT22;53462;39.616;8.824;2022-12-05T13:33:48;22.00;47.20
66608;DHT22;53462;39.616;8.824;2022-12-05T13:36:20;22.10;47.80
66608;DHT22;53462;39.616;8.824;2022-12-05T13:39:25;22.30;47.80
66608;DHT22;53462;39.616;8.824;2022-12-05T13:42:24;23.50;46.10
66608;DHT22;53462;39.616;8.824;2022-12-05T13:53:02;26.70;40.70
66608;DHT22;53462;39.616;8.824;2022-12-05T13:58:00;26.80;42.00
66608;DHT22;53462;39.616;8.824;2022-12-05T14:00:33;26.60;43.20
66608;DHT22;53462;39.616;8.824;2022-12-05T14:05:53;26.30;44.20
66608;DHT22;53462;39.616;8.824;2022-12-05T14:15:50;24.50;47.10
66608;DHT22;53462;39.616;8.824;2022-12-05T14:21:10;21.70;56.60
66608;DHT22;53462;39.616;8.824;2022-12-05T14:24:06;20.70;60.60
66608;DHT22;53462;39.616;8.824;2022-12-05T14:27:04;20.50;61.40
66608;DHT22;53462;39.616;8.824;2022-12-05T14:30:02;19.80;64.60
66608;DHT22;53462;39.616;8.824;2022-12-05T14:32:33;19.60;66.80
66608;DHT22;53462;39.616;8.824;2022-12-05T14:37:34;19.40;68.70
66608;DHT22;53462;39.616;8.824;2022-12-05T14:40:48;19.30;69.20
66608;DHT22;53462;39.616;8.824;2022-12-05T14:42:56;19.30;70.90
66608;DHT22;53462;39.616;8.824;2022-12-05T14:45:38;19.20;72.40
66608;DHT22;53462;39.616;8.824;2022-12-05T14:50:45;19.00;69.90
66608;DHT22;53462;39.616;8.824;2022-12-05T14:55:46;18.90;71.50
66608;DHT22;53462;39.616;8.824;2022-12-05T15:03:40;18.70;78.20
66608;DHT22;53462;39.616;8.824;2022-12-05T15:06:11;18.60;80.30
66608;DHT22;53462;39.616;8.824;2022-12-05T15:08:46;18.60;82.10
66608;DHT22;53462;39.616;8.824;2022-12-05T15:11:18;18.50;83.10
66608;DHT22;53462;39.616;8.824;2022-12-05T15:16:36;18.20;84.60
66608;DHT22;53462;39.616;8.824;2022-12-05T15:19:08;18.00;85.70
66608;DHT22;53462;39.616;8.824;2022-12-05T15:21:42;17.80;87.10
66608;DHT22;53462;39.616;8.824;2022-12-05T15:24:19;17.80;88.50
66608;DHT22;53462;39.616;8.824;2022-12-05T15:26:48;17.60;89.60
66608;DHT22;53462;39.616;8.824;2022-12-05T15:29:16;17.60;90.50
66608;DHT22;53462;39.616;8.824;2022-12-05T15:31:55;17.50;91.00
66608;DHT22;53462;39.616;8.824;2022-12-05T15:47:46;16.90;90.80
66608;DHT22;53462;39.616;8.824;2022-12-05T15:52:46;16.80;87.90
66608;DHT22;53462;39.616;8.824;2022-12-05T15:55:37;16.80;87.70
66608;DHT22;53462;39.616;8.824;2022-12-05T15:58:26;16.70;88.20
66608;DHT22;53462;39.616;8.824;2022-12-05T16:03:48;16.60;87.80
66608;DHT22;53462;39.616;8.824;2022-12-05T16:06:31;16.60;87.50
66608;DHT22;53462;39.616;8.824;2022-12-05T16:09:03;16.60;87.40
66608;DHT22;53462;39.616;8.824;2022-12-05T16:11:29;16.40;87.60
66608;DHT22;53462;39.616;8.824;2022-12-05T16:13:58;16.40;87.70
66608;DHT22;53462;39.616;8.824;2022-12-05T16:16:32;16.30;87.60
66608;DHT22;53462;39.616;8.824;2022-12-05T16:19:04;16.20;87.50
66608;DHT22;53462;39.616;8.824;2022-12-05T16:21:34;16.10;87.50
66608;DHT22;53462;39.616;8.824;2022-12-05T16:24:19;16.00;87.50
66608;DHT22;53462;39.616;8.824;2022-12-05T16:32:39;15.80;85.30
66608;DHT22;53462;39.616;8.824;2022-12-05T16:40:39;15.70;82.80
66608;DHT22;53462;39.616;8.824;2022-12-05T16:45:53;15.60;82.40
66608;DHT22;53462;39.616;8.824;2022-12-05T16:48:27;15.50;83.20
66608;DHT22;53462;39.616;8.824;2022-12-05T16:53:39;15.30;85.10
66608;DHT22;53462;39.616;8.824;2022-12-05T16:56:08;15.30;85.40
66608;DHT22;53462;39.616;8.824;2022-12-05T16:58:36;15.30;85.30
66608;DHT22;53462;39.616;8.824;2022-12-05T17:01:05;15.10;86.00
66608;DHT22;53462;39.616;8.824;2022-12-05T17:03:32;15.10;86.50
66608;DHT22;53462;39.616;8.824;2022-12-05T17:05:58;15.00;87.50
66608;DHT22;53462;39.616;8.824;2022-12-05T17:08:25;15.00;88.00
66608;DHT22;53462;39.616;8.824;2022-12-05T17:10:52;14.90;88.70
66608;DHT22;53462;39.616;8.824;2022-12-05T17:13:18;14.90;89.30
66608;DHT22;53462;39.616;8.824;2022-12-05T17:15:45;14.80;90.30
66608;DHT22;53462;39.616;8.824;2022-12-05T17:18:20;14.80;91.60
66608;DHT22;53462;39.616;8.824;2022-12-05T17:20:49;14.80;93.60
66608;DHT22;53462;39.616;8.824;2022-12-05T17:23:16;14.80;94.50
66608;DHT22;53462;39.616;8.824;2022-12-05T17:26:01;14.80;95.60
66608;DHT22;53462;39.616;8.824;2022-12-05T17:28:27;14.80;97.30
66608;DHT22;53462;39.616;8.824;2022-12-05T17:30:52;14.80;99.70
66608;DHT22;53462;39.616;8.824;2022-12-05T17:33:18;14.80;99.90
66608;DHT22;53462;39.616;8.824;2022-12-05T17:35:45;14.80;99.90
66608;DHT22;53462;39.616;8.824;2022-12-05T17:38:11;14.70;99.90
66608;DHT22;53462;39.616;8.824;2022-12-05T17:40:38;14.70;99.90
66608;DHT22;53462;39.616;8.824;2022-12-05T17:43:05;14.60;99.90
66608;DHT22;53462;39.616;8.824;2022-12-05T17:45:31;14.60;99.90
66608;DHT22;53462;39.616;8.824;2022-12-05T17:47:57;14.60;99.90
66608;DHT22;53462;39.616;8.824;2022-12-05T17:50:24;14.60;99.90
66608;DHT22;53462;39.616;8.824;2022-12-05T17:52:54;14.60;99.90
66608;DHT22;53462;39.616;8.824;2022-12-05T17:55:26;14.60;99.90
66608;DHT22;53462;39.616;8.824;2022-12-05T17:57:53;14.60;99.90
66608;DHT22;53462;39.616;8.824;2022-12-05T18:00:21;14.50;99.90
66608;DHT22;53462;39.616;8.824;2022-12-05T18:02:48;14.50;99.90
66608;DHT22;53462;39.616;8.824;2022-12-05T18:05:15;14.50;99.90
66608;DHT22;53462;39.616;8.824;2022-12-05T18:07:42;14.40;99.90
66608;DHT22;53462;39.616;8.824;2022-12-05T18:10:12;14.40;99.90
66608;DHT22;53462;39.616;8.824;2022-12-05T18:12:39;14.40;99.90
66608;DHT22;53462;39.616;8.824;2022-12-05T18:15:06;14.40;99.90
66608;DHT22;53462;39.616;8.824;2022-12-05T18:17:32;14.40;99.90
66608;DHT22;53462;39.616;8.824;2022-12-05T18:19:58;14.40;99.90
66608;DHT22;53462;39.616;8.824;2022-12-05T18:22:25;14.50;99.90
66608;DHT22;53462;39.616;8.824;2022-12-05T18:24:52;14.40;99.90
66608;DHT22;53462;39.616;8.824;2022-12-05T18:27:19;14.40;99.90
66608;DHT22;53462;39.616;8.824;2022-12-05T18:29:49;14.50;99.90
66608;DHT22;53462;39.616;8.824;2022-12-05T18:32:15;14.40;99.90
66608;DHT22;53462;39.616;8.824;2022-12-05T18:34:41;14.40;99.90
66608;DHT22;53462;39.616;8.824;2022-12-05T18:37:08;14.40;99.90
66608;DHT22;53462;39.616;8.824;2022-12-05T18:39:36;14.40;99.90
66608;DHT22;53462;39.616;8.824;2022-12-05T18:45:43;14.40;99.90
66608;DHT22;53462;39.616;8.824;2022-12-05T18:48:11;14.30;99.90
66608;DHT22;53462;39.616;8.824;2022-12-05T18:50:37;14.30;99.90
66608;DHT22;53462;39.616;8.824;2022-12-05T18:53:02;14.30;99.90
66608;DHT22;53462;39.616;8.824;2022-12-05T18:55:30;14.30;99.90
66608;DHT22;53462;39.616;8.824;2022-12-05T18:57:59;14.20;99.90
66608;DHT22;53462;39.616;8.824;2022-12-05T19:00:25;14.30;99.90
66608;DHT22;53462;39.616;8.824;2022-12-05T19:02:50;14.20;99.90
66608;DHT22;53462;39.616;8.824;2022-12-05T19:05:16;14.30;99.90
66608;DHT22;53462;39.616;8.824;2022-12-05T19:07:42;14.20;99.90
66608;DHT22;53462;39.616;8.824;2022-12-05T19:10:08;14.30;99.90
66608;DHT22;53462;39.616;8.824;2022-12-05T19:12:35;14.20;99.90
66608;DHT22;53462;39.616;8.824;2022-12-05T19:15:00;14.20;99.90
66608;DHT22;53462;39.616;8.824;2022-12-05T19:17:26;14.20;99.90